createdAt,value
2022-10-01T00:02:07.971Z,100226.44
2022-10-01T00:04:39.657Z,100226.13
2022-10-01T00:07:10.989Z,100224.53
2022-10-01T00:09:39.240Z,100215.03
2022-10-01T00:12:07.927Z,100217.69
2022-10-01T00:14:38.502Z,100212.56
2022-10-01T00:17:06.580Z,100220.47
2022-10-01T00:19:34.339Z,100225.81
2022-10-01T00:22:02.381Z,100230.34
2022-10-01T00:24:30.279Z,100224.09
2022-10-01T00:26:58.018Z,100223.38
2022-10-01T00:29:25.799Z,100228.47
2022-10-01T00:31:53.948Z,100229.34
2022-10-01T00:34:21.781Z,100225.59
2022-10-01T00:36:49.538Z,100225.56
2022-10-01T00:39:17.512Z,100229.94
2022-10-01T00:41:45.184Z,100238.69
2022-10-01T00:44:36.405Z,100234.47
2022-10-01T00:47:31.809Z,100236.41
2022-10-01T00:50:08.782Z,100245.03
2022-10-01T00:52:40.769Z,100245.97
2022-10-01T00:55:18.837Z,100245.84
2022-10-01T00:57:47.137Z,100245.03
2022-10-01T01:00:15.511Z,100249.50
2022-10-01T01:02:43.840Z,100241.75
2022-10-01T01:05:13.412Z,100232.75
2022-10-01T01:07:45.616Z,100235.38
2022-10-01T01:10:29.963Z,100230.94
2022-10-01T01:13:11.582Z,100231.75
2022-10-01T01:15:51.267Z,100230.13
2022-10-01T01:18:34.469Z,100219.88
2022-10-01T01:21:19.731Z,100225.25
2022-10-01T01:24:08.443Z,100226.16
2022-10-01T01:27:29.131Z,100225.34
2022-10-01T01:30:18.086Z,100227.97
2022-10-01T01:33:04.832Z,100214.09
2022-10-01T01:35:44.137Z,100222.75
2022-10-01T01:38:15.883Z,100233.16
2022-10-01T01:40:47.517Z,100232.19
2022-10-01T01:43:20.576Z,100241.06
2022-10-01T01:45:52.622Z,100237.75
2022-10-01T01:48:22.593Z,100243.78
2022-10-01T01:51:06.425Z,100239.34
2022-10-01T01:53:35.776Z,100241.16
2022-10-01T01:56:04.933Z,100245.38
2022-10-01T01:58:35.055Z,100257.56
2022-10-01T02:01:04.299Z,100249.00
2022-10-01T02:03:35.311Z,100251.63
2022-10-01T02:06:27.215Z,100257.84
2022-10-01T02:09:18.136Z,100261.28
2022-10-01T02:12:00.942Z,100264.59
2022-10-01T02:15:05.477Z,100257.66
2022-10-01T02:17:46.538Z,100259.47
2022-10-01T02:20:24.013Z,100261.28
2022-10-01T02:22:59.366Z,100250.13
2022-10-01T02:25:34.644Z,100257.44
2022-10-01T02:28:08.680Z,100253.56
2022-10-01T02:30:39.491Z,100259.88
2022-10-01T02:33:09.860Z,100265.31
2022-10-01T02:35:38.961Z,100261.78
2022-10-01T02:38:09.581Z,100261.06
2022-10-01T02:40:42.310Z,100254.13
2022-10-01T02:43:18.984Z,100242.59
2022-10-01T02:45:51.829Z,100237.78
2022-10-01T02:48:20.006Z,100229.50
2022-10-01T02:50:56.055Z,100240.75
2022-10-01T02:53:31.394Z,100235.84
2022-10-01T02:56:02.111Z,100243.00
2022-10-01T02:58:30.349Z,100230.34
2022-10-01T03:00:58.187Z,100228.47
2022-10-01T03:03:26.204Z,100229.06
2022-10-01T03:05:54.148Z,100230.41
2022-10-01T03:08:21.894Z,100229.03
2022-10-01T03:10:50.555Z,100231.28
2022-10-01T03:13:19.806Z,100226.16
2022-10-01T03:15:47.709Z,100212.59
2022-10-01T03:18:15.452Z,100212.28
2022-10-01T03:20:43.465Z,100213.63
2022-10-01T03:23:11.243Z,100205.69
2022-10-01T03:25:39.102Z,100200.69
2022-10-01T03:28:06.989Z,100189.09
2022-10-01T03:30:34.853Z,100186.78
2022-10-01T03:33:02.598Z,100194.66
2022-10-01T03:35:32.291Z,100185.56
2022-10-01T03:38:00.021Z,100189.75
2022-10-01T03:40:27.723Z,100183.97
2022-10-01T03:42:55.812Z,100191.84
2022-10-01T03:45:23.656Z,100190.28
2022-10-01T03:47:54.521Z,100189.69
2022-10-01T03:50:22.464Z,100189.78
2022-10-01T03:52:51.372Z,100190.84
2022-10-01T03:55:19.434Z,100189.22
2022-10-01T03:57:47.569Z,100192.66
2022-10-01T04:00:15.341Z,100201.63
2022-10-01T04:02:43.364Z,100204.28
2022-10-01T04:05:12.394Z,100206.31
2022-10-01T04:07:41.616Z,100215.09
2022-10-01T04:10:09.622Z,100210.88
2022-10-01T04:12:37.548Z,100223.13
2022-10-01T04:15:05.469Z,100236.38
2022-10-01T04:17:33.589Z,100232.94
2022-10-01T04:20:01.931Z,100226.22
2022-10-01T04:22:29.990Z,100227.28
2022-10-01T04:24:57.721Z,100236.03
2022-10-01T04:27:26.351Z,100216.03
2022-10-01T04:29:54.013Z,100218.03
2022-10-01T04:32:22.254Z,100219.53
2022-10-01T04:34:53.436Z,100216.03
2022-10-01T04:37:22.454Z,100210.22
2022-10-01T04:39:50.690Z,100217.47
2022-10-01T04:42:18.693Z,100220.19
2022-10-01T04:44:46.402Z,100221.22
2022-10-01T04:47:14.161Z,100225.59
2022-10-01T04:49:42.113Z,100228.25
2022-10-01T04:52:09.814Z,100216.78
2022-10-01T04:54:37.508Z,100221.72
2022-10-01T04:57:05.577Z,100220.78
2022-10-01T04:59:33.798Z,100219.94
2022-10-01T05:02:01.574Z,100216.50
2022-10-01T05:04:29.529Z,100218.03
2022-10-01T05:06:57.232Z,100210.72
2022-10-01T05:09:25.052Z,100208.91
2022-10-01T05:11:53.063Z,100206.94
2022-10-01T05:14:21.995Z,100202.53
2022-10-01T05:16:50.232Z,100200.34
2022-10-01T05:19:18.386Z,100204.91
2022-10-01T05:21:46.256Z,100203.72
2022-10-01T05:24:14.308Z,100203.47
2022-10-01T05:26:42.188Z,100204.97
2022-10-01T05:29:10.119Z,100210.72
2022-10-01T05:31:38.402Z,100209.66
2022-10-01T05:34:06.786Z,100211.16
2022-10-01T05:36:34.533Z,100209.56
2022-10-01T05:39:04.825Z,100215.66
2022-10-01T05:41:33.067Z,100212.22
2022-10-01T05:44:02.957Z,100210.25
2022-10-01T05:46:32.027Z,100219.47
2022-10-01T05:49:00.180Z,100213.03
2022-10-01T05:51:28.359Z,100217.38
2022-10-01T05:53:59.107Z,100221.44
2022-10-01T05:56:27.163Z,100220.03
2022-10-01T05:58:55.155Z,100223.13
2022-10-01T06:01:22.925Z,100224.72
2022-10-01T06:03:54.004Z,100221.44
2022-10-01T06:06:28.248Z,100220.41
2022-10-01T06:08:56.275Z,100222.69
2022-10-01T06:11:24.983Z,100217.84
2022-10-01T06:13:53.089Z,100224.72
2022-10-01T06:16:21.373Z,100221.19
2022-10-01T06:18:49.678Z,100223.53
2022-10-01T06:21:17.402Z,100222.44
2022-10-01T06:23:45.845Z,100221.31
2022-10-01T06:26:13.475Z,100218.75
2022-10-01T06:28:41.467Z,100226.31
2022-10-01T06:31:09.451Z,100216.53
2022-10-01T06:33:37.550Z,100218.63
2022-10-01T06:36:05.594Z,100219.31
2022-10-01T06:38:33.620Z,100221.44
2022-10-01T06:41:04.388Z,100222.41
2022-10-01T06:43:33.210Z,100218.97
2022-10-01T06:46:05.437Z,100213.25
2022-10-01T06:48:36.575Z,100216.09
2022-10-01T06:51:05.853Z,100215.25
2022-10-01T06:53:33.745Z,100211.84
2022-10-01T06:56:06.770Z,100215.78
2022-10-01T06:58:35.020Z,100206.00
2022-10-01T07:01:04.046Z,100213.97
2022-10-01T07:03:32.260Z,100212.00
2022-10-01T07:06:04.478Z,100211.22
2022-10-01T07:08:33.425Z,100204.06
2022-10-01T07:11:02.866Z,100215.53
2022-10-01T07:13:30.846Z,100213.53
2022-10-01T07:15:58.592Z,100213.78
2022-10-01T07:18:27.058Z,100208.69
2022-10-01T07:20:57.550Z,100211.34
2022-10-01T07:23:25.489Z,100209.00
2022-10-01T07:25:53.591Z,100221.56
2022-10-01T07:28:25.653Z,100218.31
2022-10-01T07:31:06.708Z,100215.38
2022-10-01T07:33:35.456Z,100215.38
2022-10-01T07:36:06.069Z,100216.75
2022-10-01T07:38:34.181Z,100214.25
2022-10-01T07:41:03.526Z,100218.59
2022-10-01T07:43:33.308Z,100203.56
2022-10-01T07:46:03.548Z,100211.59
2022-10-01T07:48:31.704Z,100212.13
2022-10-01T07:50:59.612Z,100216.88
2022-10-01T07:53:28.280Z,100219.97
2022-10-01T07:55:56.855Z,100216.28
2022-10-01T07:58:24.864Z,100217.88
2022-10-01T08:00:58.255Z,100220.50
2022-10-01T08:03:26.769Z,100221.28
2022-10-01T08:05:54.706Z,100222.66
2022-10-01T08:08:22.808Z,100220.63
2022-10-01T08:10:50.950Z,100222.97
2022-10-01T08:13:19.153Z,100229.03
2022-10-01T08:15:53.666Z,100219.13
2022-10-01T08:18:23.805Z,100220.25
2022-10-01T08:20:52.630Z,100223.66
2022-10-01T08:23:21.619Z,100216.53
2022-10-01T08:25:49.281Z,100218.78
2022-10-01T08:28:17.282Z,100210.16
2022-10-01T08:30:45.524Z,100206.69
2022-10-01T08:33:14.298Z,100196.38
2022-10-01T08:35:43.693Z,100199.34
2022-10-01T08:38:12.907Z,100197.00
2022-10-01T08:40:50.664Z,100201.59
2022-10-01T08:43:31.427Z,100191.00
2022-10-01T08:46:13.778Z,100189.75
2022-10-01T08:48:56.807Z,100191.19
2022-10-01T08:51:32.758Z,100184.06
2022-10-01T08:54:39.885Z,100191.72
2022-10-01T08:57:17.593Z,100182.53
2022-10-01T08:59:47.325Z,100182.81
2022-10-01T09:02:27.597Z,100178.16
2022-10-01T09:05:01.781Z,100178.84
2022-10-01T09:07:41.958Z,100174.72
2022-10-01T09:10:21.904Z,100178.66
2022-10-01T09:13:14.053Z,100173.94
2022-10-01T09:15:53.887Z,100160.03
2022-10-01T09:18:43.060Z,100159.47
2022-10-01T09:21:25.323Z,100153.50
2022-10-01T09:24:11.997Z,100151.25
2022-10-01T09:26:46.690Z,100146.88
2022-10-01T09:29:23.926Z,100145.56
2022-10-01T09:31:54.005Z,100148.53
2022-10-01T09:34:37.340Z,100145.16
2022-10-01T09:37:14.806Z,100140.06
2022-10-01T09:40:00.382Z,100134.72
2022-10-01T09:42:30.327Z,100139.59
2022-10-01T09:44:58.649Z,100138.38
2022-10-01T09:47:26.904Z,100142.75
2022-10-01T09:49:55.256Z,100144.91
2022-10-01T09:52:33.622Z,100140.03
2022-10-01T09:55:26.781Z,100134.28
2022-10-01T09:58:01.725Z,100140.66
2022-10-01T10:00:29.809Z,100134.59
2022-10-01T10:02:57.699Z,100134.03
2022-10-01T10:05:28.159Z,100134.72
2022-10-01T10:08:10.571Z,100133.78
2022-10-01T10:10:40.529Z,100133.41
2022-10-01T10:13:11.973Z,100124.16
2022-10-01T10:15:51.403Z,100124.16
2022-10-01T10:18:29.624Z,100116.88
2022-10-01T10:20:59.354Z,100116.69
2022-10-01T10:23:29.394Z,100115.72
2022-10-01T10:26:05.081Z,100116.78
2022-10-01T10:28:48.212Z,100112.25
2022-10-01T10:31:16.120Z,100106.59
2022-10-01T10:33:53.592Z,100101.47
2022-10-01T10:36:28.983Z,100099.31
2022-10-01T10:38:58.451Z,100095.63
2022-10-01T10:41:29.076Z,100097.00
2022-10-01T10:44:07.904Z,100082.88
2022-10-01T10:46:42.757Z,100080.94
2022-10-01T10:49:47.266Z,100075.34
2022-10-01T10:52:30.369Z,100062.13
2022-10-01T10:55:00.365Z,100059.19
2022-10-01T10:57:34.318Z,100059.50
2022-10-01T11:00:12.505Z,100056.13
2022-10-01T11:02:49.033Z,100055.34
2022-10-01T11:05:23.804Z,100056.03
2022-10-01T11:07:56.453Z,100050.34
2022-10-01T11:10:40.517Z,100043.72
2022-10-01T11:13:18.601Z,100034.34
2022-10-01T11:16:01.387Z,100035.41
2022-10-01T11:18:36.010Z,100029.28
2022-10-01T11:21:25.532Z,100031.91
2022-10-01T11:24:15.134Z,100016.16
2022-10-01T11:27:10.490Z,100006.91
2022-10-01T11:30:11.957Z,100011.41
2022-10-01T11:33:00.733Z,100010.41
2022-10-01T11:35:42.331Z,99998.22
2022-10-01T11:38:24.794Z,99992.03
2022-10-01T11:40:59.797Z,99989.03
2022-10-01T11:44:06.775Z,99986.34
2022-10-01T11:47:04.582Z,99982.59
2022-10-01T11:49:54.981Z,99978.50
2022-10-01T11:52:33.873Z,99972.97
2022-10-01T11:55:46.772Z,99963.25
2022-10-01T11:58:37.414Z,99953.25
2022-10-01T12:01:14.307Z,99952.28
2022-10-01T12:04:02.205Z,99943.47
2022-10-01T12:06:34.031Z,99944.97
2022-10-01T12:09:23.581Z,99938.72
2022-10-01T12:12:17.301Z,99933.09
2022-10-01T12:15:00.681Z,99927.19
2022-10-01T12:17:51.546Z,99933.63
2022-10-01T12:20:41.401Z,99926.63
2022-10-01T12:23:18.770Z,99928.03
2022-10-01T12:26:27.390Z,99927.88
2022-10-01T12:29:07.152Z,99926.06
2022-10-01T12:31:51.583Z,99924.63
2022-10-01T12:34:49.400Z,99925.06
2022-10-01T12:37:50.207Z,99927.56
2022-10-01T12:40:30.648Z,99914.81
2022-10-01T12:43:35.905Z,99915.78
2022-10-01T12:46:11.602Z,99906.25
2022-10-01T12:49:22.437Z,99903.03
2022-10-01T12:51:59.255Z,99894.13
2022-10-01T12:54:45.843Z,99894.88
2022-10-01T12:57:36.853Z,99892.63
2022-10-01T13:00:13.569Z,99883.63
2022-10-01T13:02:58.700Z,99868.31
2022-10-01T13:05:43.264Z,99870.19
2022-10-01T13:08:16.870Z,99867.47
2022-10-01T13:10:57.463Z,99867.22
2022-10-01T13:13:33.521Z,99864.47
2022-10-01T13:16:19.063Z,99867.19
2022-10-01T13:19:04.926Z,99865.09
2022-10-01T13:21:45.818Z,99857.63
2022-10-01T13:24:19.804Z,99859.13
2022-10-01T13:26:54.149Z,99848.31
2022-10-01T13:29:21.793Z,99853.91
2022-10-01T13:31:58.699Z,99855.50
2022-10-01T13:34:40.585Z,99846.94
2022-10-01T13:37:35.545Z,99850.66
2022-10-01T13:40:05.496Z,99849.72
2022-10-01T13:42:44.762Z,99844.41
2022-10-01T13:45:29.397Z,99835.47
2022-10-01T13:48:10.424Z,99832.97
2022-10-01T13:50:57.657Z,99835.97
2022-10-01T13:53:27.578Z,99835.31
2022-10-01T13:55:56.984Z,99832.22
2022-10-01T13:58:30.476Z,99823.13
2022-10-01T14:01:02.102Z,99825.84
2022-10-01T14:03:43.208Z,99827.16
2022-10-01T14:06:24.541Z,99822.53
2022-10-01T14:09:18.414Z,99822.63
2022-10-01T14:12:09.471Z,99816.41
2022-10-01T14:15:12.705Z,99816.91
2022-10-01T14:17:43.809Z,99814.91
2022-10-01T14:20:23.994Z,99810.56
2022-10-01T14:23:10.917Z,99800.91
2022-10-01T14:25:51.418Z,99791.31
2022-10-01T14:28:39.604Z,99794.75
2022-10-01T14:31:22.235Z,99785.06
2022-10-01T14:34:28.373Z,99792.09
2022-10-01T14:36:57.028Z,99783.84
2022-10-01T14:39:31.377Z,99784.56
2022-10-01T14:41:59.210Z,99779.50
2022-10-01T14:44:29.071Z,99771.31
2022-10-01T14:46:59.090Z,99778.72
2022-10-01T14:49:32.424Z,99775.44
2022-10-01T14:52:03.807Z,99770.13
2022-10-01T14:54:56.736Z,99771.22
2022-10-01T14:57:38.221Z,99761.59
2022-10-01T15:00:15.720Z,99762.31
2022-10-01T15:02:47.910Z,99759.13
2022-10-01T15:05:27.014Z,99755.53
2022-10-01T15:07:59.711Z,99756.13
2022-10-01T15:10:28.611Z,99750.34
2022-10-01T15:12:57.596Z,99746.72
2022-10-01T15:15:41.708Z,99745.34
2022-10-01T15:18:14.480Z,99743.22
2022-10-01T15:21:06.779Z,99734.75
2022-10-01T15:23:39.452Z,99732.97
2022-10-01T15:26:11.347Z,99722.13
2022-10-01T15:28:39.289Z,99734.84
2022-10-01T15:31:07.861Z,99725.88
2022-10-01T15:33:40.991Z,99722.72
2022-10-01T15:36:15.873Z,99708.84
2022-10-01T15:38:48.911Z,99712.16
2022-10-01T15:41:31.848Z,99713.16
2022-10-01T15:44:03.373Z,99716.41
2022-10-01T15:46:35.095Z,99703.28
2022-10-01T15:49:24.658Z,99703.69
2022-10-01T15:52:21.277Z,99703.97
2022-10-01T15:54:57.548Z,99705.47
2022-10-01T15:57:25.921Z,99699.69
2022-10-01T15:59:56.141Z,99693.38
2022-10-01T16:02:27.392Z,99690.84
2022-10-01T16:05:05.146Z,99699.69
2022-10-01T16:07:36.350Z,99694.91
2022-10-01T16:10:35.890Z,99692.34
2022-10-01T16:13:41.145Z,99687.25
2022-10-01T16:16:15.228Z,99690.44
2022-10-01T16:18:43.540Z,99685.19
2022-10-01T16:21:12.155Z,99679.78
2022-10-01T16:23:44.526Z,99671.69
2022-10-01T16:26:32.389Z,99660.00
2022-10-01T16:29:27.087Z,99657.34
2022-10-01T16:31:56.905Z,99646.22
2022-10-01T16:34:27.593Z,99649.06
2022-10-01T16:36:55.432Z,99647.44
2022-10-01T16:39:24.616Z,99644.13
2022-10-01T16:42:06.598Z,99639.91
2022-10-01T16:44:41.523Z,99635.56
2022-10-01T16:47:12.055Z,99629.09
2022-10-01T16:49:39.819Z,99624.78
2022-10-01T16:52:08.301Z,99628.25
2022-10-01T16:54:36.038Z,99632.94
2022-10-01T16:57:03.831Z,99625.41
2022-10-01T16:59:33.860Z,99618.25
2022-10-01T17:02:02.320Z,99612.00
2022-10-01T17:04:33.969Z,99612.00
2022-10-01T17:07:02.313Z,99615.69
2022-10-01T17:09:30.193Z,99619.84
2022-10-01T17:11:58.404Z,99618.78
2022-10-01T17:14:26.252Z,99616.84
2022-10-01T17:16:54.076Z,99618.78
2022-10-01T17:19:22.094Z,99616.72
2022-10-01T17:21:50.089Z,99599.19
2022-10-01T17:24:18.076Z,99599.38
2022-10-01T17:26:45.822Z,99596.75
2022-10-01T17:29:13.997Z,99590.41
2022-10-01T17:31:44.824Z,99591.44
2022-10-01T17:34:13.253Z,99579.31
2022-10-01T17:36:41.229Z,99573.56
2022-10-01T17:39:08.964Z,99571.38
2022-10-01T17:41:36.731Z,99575.25
2022-10-01T17:44:04.772Z,99570.53
2022-10-01T17:46:33.160Z,99572.22
2022-10-01T17:49:01.049Z,99571.53
2022-10-01T17:51:28.956Z,99571.28
2022-10-01T17:53:57.026Z,99572.53
2022-10-01T17:56:24.910Z,99578.56
2022-10-01T17:58:54.752Z,99574.41
2022-10-01T18:01:22.831Z,99578.03
2022-10-01T18:03:55.799Z,99580.72
2022-10-01T18:06:24.817Z,99575.00
2022-10-01T18:08:56.669Z,99571.31
2022-10-01T18:11:28.224Z,99580.97
2022-10-01T18:13:56.157Z,99564.91
2022-10-01T18:16:24.371Z,99567.94
2022-10-01T18:21:44.947Z,99573.03
2022-10-01T18:24:12.970Z,99568.63
2022-10-01T18:26:41.040Z,99565.91
2022-10-01T18:29:11.529Z,99566.84
2022-10-01T18:31:41.108Z,99560.59
2022-10-01T18:34:43.452Z,99557.75
2022-10-01T18:37:52.736Z,99550.38
2022-10-01T18:40:25.100Z,99548.03
2022-10-01T18:43:17.774Z,99542.19
2022-10-01T18:46:09.414Z,99545.88
2022-10-01T18:49:00.502Z,99543.47
2022-10-01T18:51:41.929Z,99541.22
2022-10-01T18:54:54.800Z,99541.50
2022-10-01T18:57:25.232Z,99537.41
2022-10-01T19:00:02.317Z,99536.56
2022-10-01T19:02:53.476Z,99535.34
2022-10-01T19:05:47.469Z,99532.94
2022-10-01T19:08:33.750Z,99539.16
2022-10-01T19:11:17.982Z,99524.56
2022-10-01T19:14:05.234Z,99531.34
2022-10-01T19:17:11.190Z,99530.09
2022-10-01T19:20:00.527Z,99521.47
2022-10-01T19:22:52.552Z,99514.63
2022-10-01T19:25:37.679Z,99521.63
2022-10-01T19:28:24.051Z,99523.47
2022-10-01T19:31:08.823Z,99512.28
2022-10-01T19:33:47.087Z,99507.31
2022-10-01T19:36:27.749Z,99507.75
2022-10-01T19:39:01.123Z,99505.34
2022-10-01T19:41:39.057Z,99505.44
2022-10-01T19:44:24.081Z,99505.78
2022-10-01T19:46:56.023Z,99506.91
2022-10-01T19:49:27.514Z,99504.66
2022-10-01T19:51:59.273Z,99500.41
2022-10-01T19:54:36.514Z,99504.38
2022-10-01T19:57:18.152Z,99492.84
2022-10-01T19:59:47.366Z,99493.53
2022-10-01T20:02:26.002Z,99486.81
2022-10-01T20:05:09.379Z,99486.81
2022-10-01T20:08:24.975Z,99492.19
2022-10-01T20:11:12.471Z,99493.06
2022-10-01T20:14:01.121Z,99488.00
2022-10-01T20:16:47.310Z,99505.31
2022-10-01T20:19:37.656Z,99496.00
2022-10-01T20:22:20.477Z,99493.75
2022-10-01T20:25:15.653Z,99490.06
2022-10-01T20:27:52.714Z,99491.47
2022-10-01T20:30:22.089Z,99493.53
2022-10-01T20:33:08.131Z,99491.47
2022-10-01T20:36:01.554Z,99502.88
2022-10-01T20:38:42.165Z,99492.56
2022-10-01T20:41:19.996Z,99496.25
2022-10-01T20:43:57.509Z,99487.72
2022-10-01T20:46:36.524Z,99485.94
2022-10-01T20:49:30.827Z,99487.97
2022-10-01T20:52:34.320Z,99485.34
2022-10-01T20:55:13.257Z,99482.09
2022-10-01T20:57:53.299Z,99475.09
2022-10-01T21:00:24.498Z,99483.06
2022-10-01T21:03:17.953Z,99477.63
2022-10-01T21:06:03.594Z,99473.47
2022-10-01T21:08:40.803Z,99469.47
2022-10-01T21:11:30.813Z,99470.25
2022-10-01T21:14:15.934Z,99474.16
2022-10-01T21:17:02.434Z,99467.22
2022-10-01T21:19:38.253Z,99468.81
2022-10-01T21:22:25.507Z,99463.66
2022-10-01T21:25:17.554Z,99474.59
2022-10-01T21:28:18.732Z,99469.06
2022-10-01T21:30:55.611Z,99469.75
2022-10-01T21:33:32.616Z,99479.63
2022-10-01T21:36:10.797Z,99469.44
2022-10-01T21:38:58.767Z,99466.06
2022-10-01T21:41:49.222Z,99499.88
2022-10-01T21:44:47.293Z,99512.44
2022-10-01T21:47:41.280Z,99517.41
2022-10-01T21:50:46.739Z,99516.28
2022-10-01T21:53:28.956Z,99523.56
2022-10-01T21:56:08.120Z,99522.06
2022-10-01T21:58:50.528Z,99521.38
2022-10-01T22:02:03.399Z,99517.13
2022-10-01T22:04:40.435Z,99520.53
2022-10-01T22:07:17.492Z,99513.00
2022-10-01T22:10:18.769Z,99510.75
2022-10-01T22:12:55.033Z,99506.25
2022-10-01T22:15:43.637Z,99512.50
2022-10-01T22:18:18.257Z,99509.19
2022-10-01T22:20:46.896Z,99506.75
2022-10-01T22:23:18.385Z,99511.81
2022-10-01T22:26:00.347Z,99505.19
2022-10-01T22:28:37.717Z,99504.50
2022-10-01T22:31:10.805Z,99509.06
2022-10-01T22:33:52.786Z,99511.75
2022-10-01T22:36:54.370Z,99512.13
2022-10-01T22:39:29.478Z,99525.84
2022-10-01T22:42:21.464Z,99524.47
2022-10-01T22:44:49.328Z,99521.38
2022-10-01T22:47:34.701Z,99519.13
2022-10-01T22:50:26.889Z,99525.53
2022-10-01T22:53:07.951Z,99526.47
2022-10-01T22:55:47.876Z,99533.16
2022-10-01T22:59:02.687Z,99534.84
2022-10-01T23:02:50.240Z,99532.47
2022-10-01T23:05:39.149Z,99531.06
2022-10-01T23:08:18.328Z,99538.50
2022-10-01T23:11:29.101Z,99531.56
2022-10-01T23:14:14.871Z,99537.56
2022-10-01T23:16:48.097Z,99536.50
2022-10-01T23:19:40.308Z,99538.56
2022-10-01T23:22:28.615Z,99541.94
2022-10-01T23:25:10.242Z,99542.03
2022-10-01T23:27:59.124Z,99540.63
2022-10-01T23:30:50.747Z,99543.44
2022-10-01T23:33:49.623Z,99544.88
2022-10-01T23:36:34.050Z,99531.25
2022-10-01T23:39:24.389Z,99540.81
2022-10-01T23:42:07.403Z,99547.75
2022-10-01T23:44:50.187Z,99540.97
2022-10-01T23:47:30.537Z,99547.81
2022-10-01T23:50:02.086Z,99551.59
2022-10-01T23:52:47.365Z,99548.66
2022-10-01T23:56:07.864Z,99547.56
2022-10-01T23:58:50.742Z,99548.81
